sensor_id;sensor_type;location;lat;lon;timestamp;P1;durP1;ratioP1;P2;durP2;ratioP2
52718;SDS011;38616;42.140;24.760;2022-07-24T00:00:51;9.10;;;3.92;;
52718;SDS011;38616;42.140;24.760;2022-07-24T00:03:16;6.75;;;3.67;;
52718;SDS011;38616;42.140;24.760;2022-07-24T00:05:41;10.40;;;3.70;;
52718;SDS011;38616;42.140;24.760;2022-07-24T00:08:07;6.80;;;3.78;;
52718;SDS011;38616;42.140;24.760;2022-07-24T00:10:32;7.00;;;3.70;;
52718;SDS011;38616;42.140;24.760;2022-07-24T00:12:58;7.47;;;3.72;;
52718;SDS011;38616;42.140;24.760;2022-07-24T00:15:23;8.45;;;4.05;;
52718;SDS011;38616;42.140;24.760;2022-07-24T00:17:49;9.20;;;3.47;;
52718;SDS011;38616;42.140;24.760;2022-07-24T00:20:14;6.03;;;4.20;;
52718;SDS011;38616;42.140;24.760;2022-07-24T00:22:39;7.07;;;3.15;;
52718;SDS011;38616;42.140;24.760;2022-07-24T00:25:05;9.48;;;3.50;;
52718;SDS011;38616;42.140;24.760;2022-07-24T00:27:31;12.13;;;3.75;;
52718;SDS011;38616;42.140;24.760;2022-07-24T00:29:56;9.98;;;3.38;;
52718;SDS011;38616;42.140;24.760;2022-07-24T00:32:22;7.68;;;3.47;;
52718;SDS011;38616;42.140;24.760;2022-07-24T00:34:47;11.55;;;4.53;;
52718;SDS011;38616;42.140;24.760;2022-07-24T00:37:12;7.40;;;3.60;;
52718;SDS011;38616;42.140;24.760;2022-07-24T00:39:38;7.93;;;4.60;;
52718;SDS011;38616;42.140;24.760;2022-07-24T00:42:03;8.25;;;4.07;;
52718;SDS011;38616;42.140;24.760;2022-07-24T00:44:29;8.40;;;3.80;;
52718;SDS011;38616;42.140;24.760;2022-07-24T00:46:54;8.73;;;4.72;;
52718;SDS011;38616;42.140;24.760;2022-07-24T00:49:20;9.57;;;4.25;;
52718;SDS011;38616;42.140;24.760;2022-07-24T00:51:46;7.05;;;4.43;;
52718;SDS011;38616;42.140;24.760;2022-07-24T00:54:14;13.40;;;5.32;;
52718;SDS011;38616;42.140;24.760;2022-07-24T00:56:40;10.13;;;5.43;;
52718;SDS011;38616;42.140;24.760;2022-07-24T00:59:07;11.60;;;5.70;;
52718;SDS011;38616;42.140;24.760;2022-07-24T01:01:32;10.48;;;6.03;;
52718;SDS011;38616;42.140;24.760;2022-07-24T01:03:58;7.40;;;5.40;;
52718;SDS011;38616;42.140;24.760;2022-07-24T01:06:24;11.75;;;6.10;;
52718;SDS011;38616;42.140;24.760;2022-07-24T01:08:50;9.50;;;5.20;;
52718;SDS011;38616;42.140;24.760;2022-07-24T01:11:16;8.00;;;5.00;;
52718;SDS011;38616;42.140;24.760;2022-07-24T01:13:43;16.70;;;5.60;;
52718;SDS011;38616;42.140;24.760;2022-07-24T01:16:09;11.18;;;5.43;;
52718;SDS011;38616;42.140;24.760;2022-07-24T01:18:35;14.00;;;5.32;;
52718;SDS011;38616;42.140;24.760;2022-07-24T01:21:01;8.73;;;4.95;;
52718;SDS011;38616;42.140;24.760;2022-07-24T01:23:28;8.75;;;4.50;;
52718;SDS011;38616;42.140;24.760;2022-07-24T01:25:53;11.10;;;5.38;;
52718;SDS011;38616;42.140;24.760;2022-07-24T01:28:19;8.63;;;4.80;;
52718;SDS011;38616;42.140;24.760;2022-07-24T01:30:45;8.98;;;4.70;;
52718;SDS011;38616;42.140;24.760;2022-07-24T01:33:11;5.53;;;4.13;;
52718;SDS011;38616;42.140;24.760;2022-07-24T01:35:37;8.90;;;4.30;;
52718;SDS011;38616;42.140;24.760;2022-07-24T01:38:06;11.20;;;4.22;;
52718;SDS011;38616;42.140;24.760;2022-07-24T01:40:32;9.43;;;4.88;;
52718;SDS011;38616;42.140;24.760;2022-07-24T01:42:57;12.82;;;4.80;;
52718;SDS011;38616;42.140;24.760;2022-07-24T01:45:23;7.53;;;4.00;;
52718;SDS011;38616;42.140;24.760;2022-07-24T01:47:48;12.40;;;4.25;;
52718;SDS011;38616;42.140;24.760;2022-07-24T01:50:14;9.45;;;4.03;;
52718;SDS011;38616;42.140;24.760;2022-07-24T01:52:39;6.07;;;3.78;;
52718;SDS011;38616;42.140;24.760;2022-07-24T01:55:05;5.47;;;3.67;;
52718;SDS011;38616;42.140;24.760;2022-07-24T01:57:31;8.98;;;3.78;;
52718;SDS011;38616;42.140;24.760;2022-07-24T01:59:58;9.60;;;3.60;;
52718;SDS011;38616;42.140;24.760;2022-07-24T02:02:25;10.70;;;4.22;;
52718;SDS011;38616;42.140;24.760;2022-07-24T02:04:51;11.20;;;4.07;;
52718;SDS011;38616;42.140;24.760;2022-07-24T02:07:16;8.25;;;3.78;;
52718;SDS011;38616;42.140;24.760;2022-07-24T02:09:42;9.52;;;3.88;;
52718;SDS011;38616;42.140;24.760;2022-07-24T02:12:07;10.77;;;3.90;;
52718;SDS011;38616;42.140;24.760;2022-07-24T02:14:33;7.57;;;3.38;;
52718;SDS011;38616;42.140;24.760;2022-07-24T02:16:58;6.07;;;3.60;;
52718;SDS011;38616;42.140;24.760;2022-07-24T02:19:23;8.70;;;3.78;;
52718;SDS011;38616;42.140;24.760;2022-07-24T02:21:49;6.40;;;3.22;;
52718;SDS011;38616;42.140;24.760;2022-07-24T02:24:15;4.78;;;3.05;;
52718;SDS011;38616;42.140;24.760;2022-07-24T02:26:41;7.28;;;3.60;;
52718;SDS011;38616;42.140;24.760;2022-07-24T02:29:06;9.18;;;4.00;;
52718;SDS011;38616;42.140;24.760;2022-07-24T02:31:50;10.38;;;3.42;;
52718;SDS011;38616;42.140;24.760;2022-07-24T02:34:16;3.40;;;2.70;;
52718;SDS011;38616;42.140;24.760;2022-07-24T02:36:41;6.00;;;3.15;;
52718;SDS011;38616;42.140;24.760;2022-07-24T02:39:07;5.65;;;3.22;;
52718;SDS011;38616;42.140;24.760;2022-07-24T02:41:32;10.13;;;3.85;;
52718;SDS011;38616;42.140;24.760;2022-07-24T02:43:57;11.35;;;3.45;;
52718;SDS011;38616;42.140;24.760;2022-07-24T02:46:23;8.75;;;3.60;;
52718;SDS011;38616;42.140;24.760;2022-07-24T02:48:48;10.15;;;4.00;;
52718;SDS011;38616;42.140;24.760;2022-07-24T02:51:14;10.07;;;4.95;;
52718;SDS011;38616;42.140;24.760;2022-07-24T02:53:39;7.13;;;3.92;;
52718;SDS011;38616;42.140;24.760;2022-07-24T02:56:05;7.68;;;3.70;;
52718;SDS011;38616;42.140;24.760;2022-07-24T02:58:30;9.55;;;4.15;;
52718;SDS011;38616;42.140;24.760;2022-07-24T03:00:56;10.30;;;3.92;;
52718;SDS011;38616;42.140;24.760;2022-07-24T03:03:22;9.52;;;4.45;;
52718;SDS011;38616;42.140;24.760;2022-07-24T03:05:47;8.23;;;3.58;;
52718;SDS011;38616;42.140;24.760;2022-07-24T03:08:13;8.52;;;3.50;;
52718;SDS011;38616;42.140;24.760;2022-07-24T03:10:38;8.02;;;3.45;;
52718;SDS011;38616;42.140;24.760;2022-07-24T03:13:04;5.35;;;3.88;;
52718;SDS011;38616;42.140;24.760;2022-07-24T03:15:30;7.93;;;3.47;;
52718;SDS011;38616;42.140;24.760;2022-07-24T03:17:56;5.60;;;3.55;;
52718;SDS011;38616;42.140;24.760;2022-07-24T03:20:23;10.38;;;3.85;;
52718;SDS011;38616;42.140;24.760;2022-07-24T03:22:51;11.82;;;3.92;;
52718;SDS011;38616;42.140;24.760;2022-07-24T03:25:17;10.02;;;3.70;;
52718;SDS011;38616;42.140;24.760;2022-07-24T03:27:43;8.90;;;3.58;;
52718;SDS011;38616;42.140;24.760;2022-07-24T03:30:09;8.00;;;3.92;;
52718;SDS011;38616;42.140;24.760;2022-07-24T03:32:35;7.47;;;3.53;;
52718;SDS011;38616;42.140;24.760;2022-07-24T03:35:01;9.63;;;3.92;;
52718;SDS011;38616;42.140;24.760;2022-07-24T03:37:27;7.18;;;3.47;;
52718;SDS011;38616;42.140;24.760;2022-07-24T03:39:52;9.02;;;4.00;;
52718;SDS011;38616;42.140;24.760;2022-07-24T03:42:18;7.90;;;4.63;;
52718;SDS011;38616;42.140;24.760;2022-07-24T03:44:43;8.80;;;4.57;;
52718;SDS011;38616;42.140;24.760;2022-07-24T03:47:09;16.70;;;8.27;;
52718;SDS011;38616;42.140;24.760;2022-07-24T03:49:34;13.80;;;5.55;;
52718;SDS011;38616;42.140;24.760;2022-07-24T03:51:59;21.15;;;6.95;;
52718;SDS011;38616;42.140;24.760;2022-07-24T03:54:25;9.73;;;4.50;;
52718;SDS011;38616;42.140;24.760;2022-07-24T03:56:51;9.25;;;4.95;;
52718;SDS011;38616;42.140;24.760;2022-07-24T03:59:16;8.48;;;4.18;;
52718;SDS011;38616;42.140;24.760;2022-07-24T04:01:42;13.93;;;5.53;;
52718;SDS011;38616;42.140;24.760;2022-07-24T04:04:07;14.43;;;5.50;;
52718;SDS011;38616;42.140;24.760;2022-07-24T04:06:33;13.68;;;4.88;;
52718;SDS011;38616;42.140;24.760;2022-07-24T04:09:00;14.27;;;6.30;;
52718;SDS011;38616;42.140;24.760;2022-07-24T04:11:26;13.32;;;6.30;;
52718;SDS011;38616;42.140;24.760;2022-07-24T04:13:52;10.38;;;5.32;;
52718;SDS011;38616;42.140;24.760;2022-07-24T04:16:17;13.00;;;5.20;;
52718;SDS011;38616;42.140;24.760;2022-07-24T04:18:42;12.13;;;4.97;;
52718;SDS011;38616;42.140;24.760;2022-07-24T04:21:08;11.73;;;4.85;;
52718;SDS011;38616;42.140;24.760;2022-07-24T04:23:34;9.85;;;5.82;;
52718;SDS011;38616;42.140;24.760;2022-07-24T04:25:59;15.80;;;5.60;;
52718;SDS011;38616;42.140;24.760;2022-07-24T04:28:25;13.07;;;4.85;;
52718;SDS011;38616;42.140;24.760;2022-07-24T04:30:50;12.75;;;5.20;;
52718;SDS011;38616;42.140;24.760;2022-07-24T04:33:16;11.93;;;5.63;;
52718;SDS011;38616;42.140;24.760;2022-07-24T04:35:42;11.25;;;5.43;;
52718;SDS011;38616;42.140;24.760;2022-07-24T04:38:07;15.38;;;6.55;;
52718;SDS011;38616;42.140;24.760;2022-07-24T04:40:32;18.25;;;6.10;;
52718;SDS011;38616;42.140;24.760;2022-07-24T04:42:58;11.43;;;5.72;;
52718;SDS011;38616;42.140;24.760;2022-07-24T04:45:23;12.38;;;6.28;;
52718;SDS011;38616;42.140;24.760;2022-07-24T04:47:49;12.57;;;6.05;;
52718;SDS011;38616;42.140;24.760;2022-07-24T04:50:17;15.43;;;6.22;;
52718;SDS011;38616;42.140;24.760;2022-07-24T04:52:43;14.02;;;7.05;;
52718;SDS011;38616;42.140;24.760;2022-07-24T04:55:09;13.38;;;5.55;;
52718;SDS011;38616;42.140;24.760;2022-07-24T04:57:35;13.20;;;5.13;;
52718;SDS011;38616;42.140;24.760;2022-07-24T05:00:00;16.17;;;5.43;;
52718;SDS011;38616;42.140;24.760;2022-07-24T05:02:25;12.80;;;5.57;;
52718;SDS011;38616;42.140;24.760;2022-07-24T05:04:51;14.65;;;6.05;;
52718;SDS011;38616;42.140;24.760;2022-07-24T05:07:16;9.85;;;5.00;;
52718;SDS011;38616;42.140;24.760;2022-07-24T05:09:42;13.70;;;5.47;;
52718;SDS011;38616;42.140;24.760;2022-07-24T05:12:07;15.07;;;6.10;;
52718;SDS011;38616;42.140;24.760;2022-07-24T05:14:33;20.15;;;7.93;;
52718;SDS011;38616;42.140;24.760;2022-07-24T05:16:58;10.45;;;5.20;;
52718;SDS011;38616;42.140;24.760;2022-07-24T05:19:24;18.80;;;7.88;;
52718;SDS011;38616;42.140;24.760;2022-07-24T05:21:49;13.50;;;6.07;;
52718;SDS011;38616;42.140;24.760;2022-07-24T05:24:15;10.50;;;5.20;;
52718;SDS011;38616;42.140;24.760;2022-07-24T05:26:40;12.95;;;5.10;;
52718;SDS011;38616;42.140;24.760;2022-07-24T05:29:05;15.52;;;6.18;;
52718;SDS011;38616;42.140;24.760;2022-07-24T05:31:32;13.52;;;6.63;;
52718;SDS011;38616;42.140;24.760;2022-07-24T05:33:57;20.23;;;6.07;;
52718;SDS011;38616;42.140;24.760;2022-07-24T05:36:23;15.35;;;6.15;;
52718;SDS011;38616;42.140;24.760;2022-07-24T05:38:49;12.85;;;6.22;;
52718;SDS011;38616;42.140;24.760;2022-07-24T05:41:15;12.13;;;5.57;;
52718;SDS011;38616;42.140;24.760;2022-07-24T05:43:40;17.02;;;6.78;;
52718;SDS011;38616;42.140;24.760;2022-07-24T05:46:06;17.45;;;6.32;;
52718;SDS011;38616;42.140;24.760;2022-07-24T05:48:31;14.77;;;5.97;;
52718;SDS011;38616;42.140;24.760;2022-07-24T05:50:57;23.52;;;11.00;;
52718;SDS011;38616;42.140;24.760;2022-07-24T05:53:23;11.85;;;7.07;;
52718;SDS011;38616;42.140;24.760;2022-07-24T05:55:49;14.65;;;6.68;;
52718;SDS011;38616;42.140;24.760;2022-07-24T05:58:14;10.90;;;5.65;;
52718;SDS011;38616;42.140;24.760;2022-07-24T06:00:40;14.65;;;6.18;;
52718;SDS011;38616;42.140;24.760;2022-07-24T06:03:05;11.80;;;7.10;;
52718;SDS011;38616;42.140;24.760;2022-07-24T06:05:31;13.88;;;5.95;;
52718;SDS011;38616;42.140;24.760;2022-07-24T06:07:57;18.98;;;7.00;;
52718;SDS011;38616;42.140;24.760;2022-07-24T06:10:22;15.70;;;5.85;;
52718;SDS011;38616;42.140;24.760;2022-07-24T06:12:48;19.60;;;7.97;;
52718;SDS011;38616;42.140;24.760;2022-07-24T06:15:13;14.48;;;6.97;;
52718;SDS011;38616;42.140;24.760;2022-07-24T06:17:39;17.67;;;9.65;;
52718;SDS011;38616;42.140;24.760;2022-07-24T06:20:05;15.80;;;7.38;;
52718;SDS011;38616;42.140;24.760;2022-07-24T06:22:32;17.83;;;6.90;;
52718;SDS011;38616;42.140;24.760;2022-07-24T06:24:57;20.23;;;10.27;;
52718;SDS011;38616;42.140;24.760;2022-07-24T06:27:22;21.73;;;8.05;;
52718;SDS011;38616;42.140;24.760;2022-07-24T06:29:48;14.38;;;6.63;;
52718;SDS011;38616;42.140;24.760;2022-07-24T06:32:13;18.38;;;6.78;;
52718;SDS011;38616;42.140;24.760;2022-07-24T06:34:38;14.25;;;6.45;;
52718;SDS011;38616;42.140;24.760;2022-07-24T06:37:04;14.10;;;7.63;;
52718;SDS011;38616;42.140;24.760;2022-07-24T06:39:29;13.13;;;6.85;;
52718;SDS011;38616;42.140;24.760;2022-07-24T06:41:55;16.65;;;7.80;;
52718;SDS011;38616;42.140;24.760;2022-07-24T06:44:20;13.73;;;7.03;;
52718;SDS011;38616;42.140;24.760;2022-07-24T06:46:47;13.55;;;5.97;;
52718;SDS011;38616;42.140;24.760;2022-07-24T06:49:13;16.17;;;6.88;;
52718;SDS011;38616;42.140;24.760;2022-07-24T06:51:38;13.98;;;7.03;;
52718;SDS011;38616;42.140;24.760;2022-07-24T06:54:03;14.63;;;6.50;;
52718;SDS011;38616;42.140;24.760;2022-07-24T06:56:29;19.50;;;7.78;;
52718;SDS011;38616;42.140;24.760;2022-07-24T06:58:54;12.90;;;6.47;;
52718;SDS011;38616;42.140;24.760;2022-07-24T07:01:20;13.82;;;6.78;;
52718;SDS011;38616;42.140;24.760;2022-07-24T07:03:45;14.77;;;6.60;;
52718;SDS011;38616;42.140;24.760;2022-07-24T07:06:11;13.85;;;7.20;;
52718;SDS011;38616;42.140;24.760;2022-07-24T07:08:36;16.48;;;6.53;;
52718;SDS011;38616;42.140;24.760;2022-07-24T07:11:01;19.67;;;6.57;;
52718;SDS011;38616;42.140;24.760;2022-07-24T07:13:27;20.95;;;6.88;;
52718;SDS011;38616;42.140;24.760;2022-07-24T07:15:52;15.75;;;7.03;;
52718;SDS011;38616;42.140;24.760;2022-07-24T07:18:18;17.02;;;7.22;;
52718;SDS011;38616;42.140;24.760;2022-07-24T07:20:43;17.83;;;6.18;;
52718;SDS011;38616;42.140;24.760;2022-07-24T07:23:09;14.45;;;6.68;;
52718;SDS011;38616;42.140;24.760;2022-07-24T07:25:34;15.48;;;5.85;;
52718;SDS011;38616;42.140;24.760;2022-07-24T07:28:00;20.80;;;6.85;;
52718;SDS011;38616;42.140;24.760;2022-07-24T07:30:25;11.85;;;7.30;;
52718;SDS011;38616;42.140;24.760;2022-07-24T07:32:51;14.10;;;6.68;;
52718;SDS011;38616;42.140;24.760;2022-07-24T07:35:16;14.05;;;6.63;;
52718;SDS011;38616;42.140;24.760;2022-07-24T07:37:44;11.50;;;6.70;;
52718;SDS011;38616;42.140;24.760;2022-07-24T07:40:09;15.68;;;6.00;;
52718;SDS011;38616;42.140;24.760;2022-07-24T07:42:35;16.23;;;6.43;;
52718;SDS011;38616;42.140;24.760;2022-07-24T07:45:01;16.75;;;6.68;;
52718;SDS011;38616;42.140;24.760;2022-07-24T07:47:26;13.25;;;6.22;;
52718;SDS011;38616;42.140;24.760;2022-07-24T07:49:52;11.95;;;5.55;;
52718;SDS011;38616;42.140;24.760;2022-07-24T07:52:18;14.88;;;6.95;;
52718;SDS011;38616;42.140;24.760;2022-07-24T07:54:43;9.45;;;6.25;;
52718;SDS011;38616;42.140;24.760;2022-07-24T07:57:10;15.23;;;6.43;;
52718;SDS011;38616;42.140;24.760;2022-07-24T07:59:35;20.17;;;6.25;;
52718;SDS011;38616;42.140;24.760;2022-07-24T08:02:01;8.98;;;5.05;;
52718;SDS011;38616;42.140;24.760;2022-07-24T08:04:26;12.77;;;5.57;;
52718;SDS011;38616;42.140;24.760;2022-07-24T08:06:52;10.48;;;5.30;;
52718;SDS011;38616;42.140;24.760;2022-07-24T08:09:18;9.85;;;5.22;;
52718;SDS011;38616;42.140;24.760;2022-07-24T08:11:43;10.80;;;5.00;;
52718;SDS011;38616;42.140;24.760;2022-07-24T08:14:09;10.45;;;4.90;;
52718;SDS011;38616;42.140;24.760;2022-07-24T08:16:34;12.50;;;5.25;;
52718;SDS011;38616;42.140;24.760;2022-07-24T08:18:59;11.98;;;6.30;;
52718;SDS011;38616;42.140;24.760;2022-07-24T08:21:25;10.40;;;5.95;;
52718;SDS011;38616;42.140;24.760;2022-07-24T08:23:50;12.20;;;5.35;;
52718;SDS011;38616;42.140;24.760;2022-07-24T08:26:16;19.23;;;4.90;;
52718;SDS011;38616;42.140;24.760;2022-07-24T08:28:41;12.68;;;5.22;;
52718;SDS011;38616;42.140;24.760;2022-07-24T08:31:07;16.95;;;5.53;;
52718;SDS011;38616;42.140;24.760;2022-07-24T08:33:32;12.85;;;4.63;;
52718;SDS011;38616;42.140;24.760;2022-07-24T08:35:58;12.93;;;5.88;;
52718;SDS011;38616;42.140;24.760;2022-07-24T08:38:23;7.68;;;5.22;;
52718;SDS011;38616;42.140;24.760;2022-07-24T08:40:49;18.50;;;5.07;;
52718;SDS011;38616;42.140;24.760;2022-07-24T08:43:15;17.00;;;6.97;;
52718;SDS011;38616;42.140;24.760;2022-07-24T08:45:41;14.13;;;5.32;;
52718;SDS011;38616;42.140;24.760;2022-07-24T08:48:09;8.48;;;5.07;;
52718;SDS011;38616;42.140;24.760;2022-07-24T08:53:03;13.55;;;5.43;;
52718;SDS011;38616;42.140;24.760;2022-07-24T08:55:30;10.88;;;4.93;;
52718;SDS011;38616;42.140;24.760;2022-07-24T08:57:56;13.93;;;5.15;;
52718;SDS011;38616;42.140;24.760;2022-07-24T09:00:22;11.45;;;4.80;;
52718;SDS011;38616;42.140;24.760;2022-07-24T09:02:48;11.15;;;5.05;;
52718;SDS011;38616;42.140;24.760;2022-07-24T09:05:14;10.38;;;5.22;;
52718;SDS011;38616;42.140;24.760;2022-07-24T09:07:39;11.05;;;4.95;;
52718;SDS011;38616;42.140;24.760;2022-07-24T09:12:33;11.05;;;4.75;;
52718;SDS011;38616;42.140;24.760;2022-07-24T09:15:00;9.68;;;5.75;;
52718;SDS011;38616;42.140;24.760;2022-07-24T09:17:27;11.68;;;5.30;;
52718;SDS011;38616;42.140;24.760;2022-07-24T09:19:54;15.47;;;6.43;;
52718;SDS011;38616;42.140;24.760;2022-07-24T09:27:58;9.57;;;5.65;;
52718;SDS011;38616;42.140;24.760;2022-07-24T09:33:02;12.05;;;5.65;;
52718;SDS011;38616;42.140;24.760;2022-07-24T09:35:34;10.50;;;5.25;;
52718;SDS011;38616;42.140;24.760;2022-07-24T09:38:03;9.27;;;5.00;;
52718;SDS011;38616;42.140;24.760;2022-07-24T09:40:31;10.80;;;5.20;;
52718;SDS011;38616;42.140;24.760;2022-07-24T09:43:13;11.40;;;6.72;;
52718;SDS011;38616;42.140;24.760;2022-07-24T09:45:52;304.88;;;190.13;;
52718;SDS011;38616;42.140;24.760;2022-07-24T09:48:19;199.60;;;130.55;;
52718;SDS011;38616;42.140;24.760;2022-07-24T09:50:50;1999.90;;;963.08;;
52718;SDS011;38616;42.140;24.760;2022-07-24T09:53:18;804.25;;;512.15;;
52718;SDS011;38616;42.140;24.760;2022-07-24T09:55:55;556.17;;;451.98;;
52718;SDS011;38616;42.140;24.760;2022-07-24T09:58:27;259.15;;;188.40;;
52718;SDS011;38616;42.140;24.760;2022-07-24T10:00:54;110.15;;;70.25;;
52718;SDS011;38616;42.140;24.760;2022-07-24T10:03:23;714.15;;;481.45;;
52718;SDS011;38616;42.140;24.760;2022-07-24T10:05:53;1999.90;;;999.90;;
52718;SDS011;38616;42.140;24.760;2022-07-24T10:08:20;1544.55;;;825.70;;
52718;SDS011;38616;42.140;24.760;2022-07-24T10:10:46;1252.10;;;726.08;;
52718;SDS011;38616;42.140;24.760;2022-07-24T10:13:14;1999.90;;;999.90;;
52718;SDS011;38616;42.140;24.760;2022-07-24T10:15:45;120.47;;;90.45;;
52718;SDS011;38616;42.140;24.760;2022-07-24T10:18:19;1616.63;;;779.13;;
52718;SDS011;38616;42.140;24.760;2022-07-24T10:20:47;46.20;;;32.08;;
52718;SDS011;38616;42.140;24.760;2022-07-24T10:23:23;15.85;;;6.82;;
52718;SDS011;38616;42.140;24.760;2022-07-24T10:26:03;12.32;;;5.85;;
52718;SDS011;38616;42.140;24.760;2022-07-24T10:31:04;11.68;;;4.78;;
52718;SDS011;38616;42.140;24.760;2022-07-24T10:33:31;11.32;;;4.97;;
52718;SDS011;38616;42.140;24.760;2022-07-24T10:35:58;17.58;;;5.57;;
52718;SDS011;38616;42.140;24.760;2022-07-24T10:38:32;9.38;;;5.03;;
52718;SDS011;38616;42.140;24.760;2022-07-24T10:41:02;15.50;;;5.93;;
52718;SDS011;38616;42.140;24.760;2022-07-24T10:43:34;11.38;;;5.75;;
52718;SDS011;38616;42.140;24.760;2022-07-24T10:48:25;10.00;;;5.45;;
52718;SDS011;38616;42.140;24.760;2022-07-24T10:53:25;16.85;;;5.63;;
52718;SDS011;38616;42.140;24.760;2022-07-24T10:55:52;15.43;;;5.68;;
52718;SDS011;38616;42.140;24.760;2022-07-24T10:58:20;8.57;;;4.57;;
52718;SDS011;38616;42.140;24.760;2022-07-24T11:00:47;10.48;;;4.90;;
52718;SDS011;38616;42.140;24.760;2022-07-24T11:03:21;11.52;;;4.80;;
52718;SDS011;38616;42.140;24.760;2022-07-24T11:08:31;11.70;;;4.88;;
52718;SDS011;38616;42.140;24.760;2022-07-24T11:11:05;15.93;;;5.18;;
52718;SDS011;38616;42.140;24.760;2022-07-24T11:13:39;10.23;;;5.00;;
52718;SDS011;38616;42.140;24.760;2022-07-24T11:18:41;15.10;;;5.82;;
52718;SDS011;38616;42.140;24.760;2022-07-24T11:29:18;11.52;;;5.13;;
52718;SDS011;38616;42.140;24.760;2022-07-24T11:34:42;12.20;;;5.00;;
52718;SDS011;38616;42.140;24.760;2022-07-24T11:37:12;14.55;;;5.13;;
52718;SDS011;38616;42.140;24.760;2022-07-24T11:39:38;12.05;;;5.07;;
52718;SDS011;38616;42.140;24.760;2022-07-24T11:42:06;11.98;;;5.15;;
52718;SDS011;38616;42.140;24.760;2022-07-24T11:44:34;14.30;;;4.80;;
52718;SDS011;38616;42.140;24.760;2022-07-24T11:47:18;12.98;;;5.35;;
52718;SDS011;38616;42.140;24.760;2022-07-24T11:49:49;14.88;;;5.63;;
52718;SDS011;38616;42.140;24.760;2022-07-24T11:52:21;10.32;;;4.95;;
52718;SDS011;38616;42.140;24.760;2022-07-24T11:54:49;10.73;;;5.60;;
52718;SDS011;38616;42.140;24.760;2022-07-24T11:59:50;8.48;;;5.00;;
52718;SDS011;38616;42.140;24.760;2022-07-24T12:02:17;11.80;;;5.80;;
52718;SDS011;38616;42.140;24.760;2022-07-24T12:04:44;9.80;;;4.70;;
52718;SDS011;38616;42.140;24.760;2022-07-24T12:09:51;14.63;;;4.95;;
52718;SDS011;38616;42.140;24.760;2022-07-24T12:12:19;21.42;;;10.98;;
52718;SDS011;38616;42.140;24.760;2022-07-24T12:17:30;19.17;;;8.15;;
52718;SDS011;38616;42.140;24.760;2022-07-24T12:19:59;12.55;;;6.68;;
52718;SDS011;38616;42.140;24.760;2022-07-24T12:22:26;13.88;;;6.32;;
52718;SDS011;38616;42.140;24.760;2022-07-24T12:27:41;15.05;;;5.47;;
52718;SDS011;38616;42.140;24.760;2022-07-24T12:30:20;10.55;;;4.65;;
52718;SDS011;38616;42.140;24.760;2022-07-24T12:32:59;9.98;;;5.00;;
52718;SDS011;38616;42.140;24.760;2022-07-24T12:37:51;10.82;;;4.97;;
52718;SDS011;38616;42.140;24.760;2022-07-24T12:40:22;19.70;;;5.38;;
52718;SDS011;38616;42.140;24.760;2022-07-24T12:43:08;15.15;;;5.95;;
52718;SDS011;38616;42.140;24.760;2022-07-24T12:45:37;13.18;;;5.68;;
52718;SDS011;38616;42.140;24.760;2022-07-24T12:48:16;8.80;;;5.40;;
52718;SDS011;38616;42.140;24.760;2022-07-24T12:51:00;10.60;;;5.68;;
52718;SDS011;38616;42.140;24.760;2022-07-24T12:53:30;13.68;;;6.18;;
52718;SDS011;38616;42.140;24.760;2022-07-24T12:56:05;12.30;;;5.35;;
52718;SDS011;38616;42.140;24.760;2022-07-24T13:01:23;8.88;;;5.38;;
52718;SDS011;38616;42.140;24.760;2022-07-24T13:04:09;10.73;;;5.45;;
52718;SDS011;38616;42.140;24.760;2022-07-24T13:06:37;11.35;;;5.80;;
52718;SDS011;38616;42.140;24.760;2022-07-24T13:09:03;9.35;;;4.57;;
52718;SDS011;38616;42.140;24.760;2022-07-24T13:11:30;9.20;;;5.20;;
52718;SDS011;38616;42.140;24.760;2022-07-24T13:13:55;12.67;;;5.60;;
52718;SDS011;38616;42.140;24.760;2022-07-24T13:16:21;9.57;;;5.40;;
52718;SDS011;38616;42.140;24.760;2022-07-24T13:18:48;12.98;;;5.55;;
52718;SDS011;38616;42.140;24.760;2022-07-24T13:21:16;6.45;;;5.00;;
52718;SDS011;38616;42.140;24.760;2022-07-24T13:23:43;12.80;;;4.85;;
52718;SDS011;38616;42.140;24.760;2022-07-24T13:26:09;9.83;;;6.27;;
52718;SDS011;38616;42.140;24.760;2022-07-24T13:28:35;10.10;;;5.30;;
52718;SDS011;38616;42.140;24.760;2022-07-24T13:31:00;11.73;;;5.38;;
52718;SDS011;38616;42.140;24.760;2022-07-24T13:33:26;13.50;;;6.33;;
52718;SDS011;38616;42.140;24.760;2022-07-24T13:35:51;14.47;;;5.30;;
52718;SDS011;38616;42.140;24.760;2022-07-24T13:38:17;12.13;;;5.87;;
52718;SDS011;38616;42.140;24.760;2022-07-24T13:40:42;15.20;;;5.70;;
52718;SDS011;38616;42.140;24.760;2022-07-24T13:43:07;13.33;;;5.57;;
52718;SDS011;38616;42.140;24.760;2022-07-24T13:45:33;12.53;;;5.17;;
52718;SDS011;38616;42.140;24.760;2022-07-24T13:47:58;13.37;;;5.73;;
52718;SDS011;38616;42.140;24.760;2022-07-24T13:50:24;9.67;;;5.53;;
52718;SDS011;38616;42.140;24.760;2022-07-24T13:52:49;11.57;;;5.43;;
52718;SDS011;38616;42.140;24.760;2022-07-24T13:55:14;12.00;;;5.57;;
52718;SDS011;38616;42.140;24.760;2022-07-24T13:57:40;11.03;;;5.23;;
52718;SDS011;38616;42.140;24.760;2022-07-24T14:00:05;5.80;;;4.67;;
52718;SDS011;38616;42.140;24.760;2022-07-24T14:02:32;10.25;;;5.53;;
52718;SDS011;38616;42.140;24.760;2022-07-24T14:04:57;8.53;;;5.30;;
52718;SDS011;38616;42.140;24.760;2022-07-24T14:07:22;10.20;;;5.37;;
52718;SDS011;38616;42.140;24.760;2022-07-24T14:09:48;10.77;;;6.20;;
52718;SDS011;38616;42.140;24.760;2022-07-24T14:12:13;9.80;;;5.90;;
52718;SDS011;38616;42.140;24.760;2022-07-24T14:14:39;17.73;;;5.80;;
52718;SDS011;38616;42.140;24.760;2022-07-24T14:17:04;9.03;;;5.07;;
52718;SDS011;38616;42.140;24.760;2022-07-24T14:19:30;10.00;;;5.33;;
52718;SDS011;38616;42.140;24.760;2022-07-24T14:21:55;8.83;;;4.97;;
52718;SDS011;38616;42.140;24.760;2022-07-24T14:24:20;8.70;;;5.53;;
52718;SDS011;38616;42.140;24.760;2022-07-24T14:26:46;7.37;;;4.77;;
52718;SDS011;38616;42.140;24.760;2022-07-24T14:29:12;12.27;;;5.55;;
52718;SDS011;38616;42.140;24.760;2022-07-24T14:31:38;8.63;;;5.50;;
52718;SDS011;38616;42.140;24.760;2022-07-24T14:34:04;10.60;;;5.53;;
52718;SDS011;38616;42.140;24.760;2022-07-24T14:36:29;12.63;;;5.30;;
52718;SDS011;38616;42.140;24.760;2022-07-24T14:38:55;12.88;;;4.80;;
52718;SDS011;38616;42.140;24.760;2022-07-24T14:41:20;14.03;;;5.53;;
52718;SDS011;38616;42.140;24.760;2022-07-24T14:43:46;9.63;;;4.77;;
52718;SDS011;38616;42.140;24.760;2022-07-24T14:46:11;9.30;;;5.73;;
52718;SDS011;38616;42.140;24.760;2022-07-24T14:48:37;9.90;;;5.70;;
52718;SDS011;38616;42.140;24.760;2022-07-24T14:51:02;12.10;;;5.63;;
52718;SDS011;38616;42.140;24.760;2022-07-24T14:53:28;9.83;;;5.00;;
52718;SDS011;38616;42.140;24.760;2022-07-24T14:55:53;8.57;;;5.57;;
52718;SDS011;38616;42.140;24.760;2022-07-24T14:58:18;8.57;;;5.43;;
52718;SDS011;38616;42.140;24.760;2022-07-24T15:00:44;8.07;;;5.43;;
52718;SDS011;38616;42.140;24.760;2022-07-24T15:03:11;8.63;;;4.93;;
52718;SDS011;38616;42.140;24.760;2022-07-24T15:05:36;9.47;;;5.40;;
52718;SDS011;38616;42.140;24.760;2022-07-24T15:08:02;8.57;;;5.57;;
52718;SDS011;38616;42.140;24.760;2022-07-24T15:10:27;8.57;;;5.80;;
52718;SDS011;38616;42.140;24.760;2022-07-24T15:12:53;8.57;;;5.63;;